VKG1171 LGRP-EKCH
Flight info
| Callsign | VKG1171 |
|---|---|
| Flight time | N/A |
| Altitude | 34000 |
| Route | VANES UM601 ADESO UN133 RIGRO DCT EVIVI L863 OKANA DCT PARAK DCT MAKAL DCT DESEN DCT PESEL DCT PENET T298 MONAK |
| Aircraft | A321/M-SDE2E3FGHIJ1RWXYZ/LB2 |
Departure
| Time | N/A |
|---|---|
| Airport | Rhodes International Airport "Diagoras" (LGRP) |
Arrival
| Time | 2026-05-03 20:33 |
|---|---|
| Airport | Copenhagen Kastrup Airport (EKCH) |
| Time | Latitude | Longitude | Altitude | Speed | Heading |
|---|---|---|---|---|---|
| 2026-05-03 20:15 | 54.52127 | 12.94818 | 23855 ft | 465 kts | 315° |
| 2026-05-03 20:15 | 54.54578 | 12.91206 | 23465 ft | 463 kts | 315° |
| 2026-05-03 20:15 | 54.57025 | 12.87590 | 22988 ft | 460 kts | 315° |
| 2026-05-03 20:15 | 54.59445 | 12.84006 | 22555 ft | 457 kts | 315° |
| 2026-05-03 20:16 | 54.61841 | 12.80451 | 22108 ft | 453 kts | 315° |
| 2026-05-03 20:16 | 54.64223 | 12.76914 | 21657 ft | 450 kts | 315° |
| 2026-05-03 20:16 | 54.66586 | 12.73396 | 21211 ft | 447 kts | 315° |
| 2026-05-03 20:16 | 54.68937 | 12.69890 | 20776 ft | 444 kts | 315° |
| 2026-05-03 20:17 | 54.71268 | 12.66414 | 20354 ft | 441 kts | 315° |
| 2026-05-03 20:17 | 54.73586 | 12.62955 | 19927 ft | 438 kts | 315° |
| 2026-05-03 20:17 | 54.75886 | 12.59518 | 19525 ft | 436 kts | 314° |
| 2026-05-03 20:17 | 54.78174 | 12.56094 | 19091 ft | 433 kts | 314° |
| 2026-05-03 20:18 | 54.80446 | 12.52681 | 18716 ft | 431 kts | 314° |
| 2026-05-03 20:18 | 54.82704 | 12.49284 | 18316 ft | 429 kts | 314° |
| 2026-05-03 20:18 | 54.84951 | 12.45906 | 17891 ft | 427 kts | 315° |
| 2026-05-03 20:18 | 54.87441 | 12.43050 | 17426 ft | 433 kts | 330° |
| 2026-05-03 20:19 | 54.90288 | 12.41489 | 16983 ft | 440 kts | 347° |
| 2026-05-03 20:19 | 54.93357 | 12.41441 | 16551 ft | 445 kts | 6° |
| 2026-05-03 20:19 | 54.96328 | 12.42972 | 16139 ft | 448 kts | 22° |
| 2026-05-03 20:19 | 54.99166 | 12.45184 | 15734 ft | 447 kts | 22° |
| 2026-05-03 20:20 | 55.02001 | 12.47413 | 15341 ft | 445 kts | 22° |
| 2026-05-03 20:20 | 55.04816 | 12.49631 | 14945 ft | 443 kts | 22° |
| 2026-05-03 20:20 | 55.07622 | 12.51838 | 14555 ft | 441 kts | 22° |
| 2026-05-03 20:20 | 55.10419 | 12.54033 | 14169 ft | 439 kts | 22° |
| 2026-05-03 20:21 | 55.13193 | 12.56207 | 13781 ft | 437 kts | 22° |
| 2026-05-03 20:21 | 55.15929 | 12.58355 | 13370 ft | 421 kts | 22° |
| 2026-05-03 20:21 | 55.17667 | 12.59724 | 13084 ft | 407 kts | 22° |
| 2026-05-03 20:21 | 55.20186 | 12.61712 | 12676 ft | 387 kts | 22° |
| 2026-05-03 20:22 | 55.22585 | 12.63609 | 12261 ft | 370 kts | 22° |
| 2026-05-03 20:22 | 55.25611 | 12.66002 | 11722 ft | 350 kts | 22° |
| 2026-05-03 20:22 | 55.27794 | 12.67731 | 11324 ft | 337 kts | 22° |
| 2026-05-03 20:22 | 55.29899 | 12.69401 | 10927 ft | 328 kts | 22° |
| 2026-05-03 20:23 | 55.31970 | 12.71040 | 10541 ft | 326 kts | 22° |
| 2026-05-03 20:23 | 55.33373 | 12.72150 | 10290 ft | 327 kts | 22° |
| 2026-05-03 20:23 | 55.35445 | 12.73789 | 9905 ft | 326 kts | 21° |
| 2026-05-03 20:23 | 55.37506 | 12.75421 | 9499 ft | 325 kts | 22° |
| 2026-05-03 20:24 | 55.39541 | 12.77038 | 9261 ft | 315 kts | 22° |
| 2026-05-03 20:24 | 55.41461 | 12.78575 | 9111 ft | 290 kts | 22° |
| 2026-05-03 20:24 | 55.43218 | 12.79987 | 8902 ft | 269 kts | 22° |
| 2026-05-03 20:24 | 55.44902 | 12.81337 | 8401 ft | 263 kts | 22° |
| 2026-05-03 20:25 | 55.46563 | 12.82666 | 7850 ft | 261 kts | 22° |
| 2026-05-03 20:25 | 55.48209 | 12.83979 | 7316 ft | 259 kts | 22° |
| 2026-05-03 20:25 | 55.49825 | 12.85268 | 6789 ft | 257 kts | 22° |
| 2026-05-03 20:25 | 55.51447 | 12.86561 | 6256 ft | 255 kts | 23° |
| 2026-05-03 20:26 | 55.53059 | 12.87849 | 5700 ft | 253 kts | 23° |
| 2026-05-03 20:26 | 55.54655 | 12.89128 | 5190 ft | 252 kts | 24° |
| 2026-05-03 20:26 | 55.56241 | 12.90400 | 4893 ft | 249 kts | 24° |
| 2026-05-03 20:26 | 55.57814 | 12.91665 | 4581 ft | 247 kts | 24° |
| 2026-05-03 20:27 | 55.59367 | 12.92918 | 4270 ft | 244 kts | 24° |
| 2026-05-03 20:27 | 55.60908 | 12.94161 | 3956 ft | 242 kts | 24° |
| 2026-05-03 20:27 | 55.62433 | 12.95393 | 3656 ft | 240 kts | 24° |
| 2026-05-03 20:27 | 55.63941 | 12.96606 | 3352 ft | 237 kts | 21° |
| 2026-05-03 20:28 | 55.65529 | 12.97016 | 3053 ft | 229 kts | 348° |
| 2026-05-03 20:28 | 55.66973 | 12.96051 | 2656 ft | 218 kts | 327° |
| 2026-05-03 20:28 | 55.68256 | 12.94650 | 2149 ft | 216 kts | 323° |
| 2026-05-03 20:28 | 55.69489 | 12.93166 | 2024 ft | 215 kts | 323° |
| 2026-05-03 20:29 | 55.70714 | 12.91628 | 2025 ft | 216 kts | 320° |
| 2026-05-03 20:29 | 55.71700 | 12.89699 | 2042 ft | 206 kts | 300° |
| 2026-05-03 20:29 | 55.72245 | 12.87486 | 2034 ft | 190 kts | 282° |
| 2026-05-03 20:29 | 55.72380 | 12.85198 | 2030 ft | 184 kts | 265° |
| 2026-05-03 20:30 | 55.72139 | 12.82994 | 2025 ft | 181 kts | 249° |
| 2026-05-03 20:30 | 55.71560 | 12.81037 | 2029 ft | 179 kts | 233° |
| 2026-05-03 20:30 | 55.70715 | 12.79473 | 2028 ft | 178 kts | 220° |
| 2026-05-03 20:30 | 55.69781 | 12.78019 | 1911 ft | 179 kts | 220° |
| 2026-05-03 20:31 | 55.68850 | 12.76568 | 1719 ft | 178 kts | 220° |
| 2026-05-03 20:31 | 55.67938 | 12.75147 | 1487 ft | 172 kts | 220° |
| 2026-05-03 20:31 | 55.67044 | 12.73757 | 1258 ft | 170 kts | 220° |
| 2026-05-03 20:31 | 55.66153 | 12.72372 | 1030 ft | 170 kts | 220° |
| 2026-05-03 20:32 | 55.65278 | 12.71012 | 789 ft | 164 kts | 220° |
| 2026-05-03 20:32 | 55.64435 | 12.69701 | 568 ft | 160 kts | 221° |
| 2026-05-03 20:32 | 55.63606 | 12.68417 | 338 ft | 156 kts | 221° |
| 2026-05-03 20:32 | 55.62798 | 12.67173 | 106 ft | 152 kts | 223° |
| 2026-05-03 20:33 | 55.62060 | 12.66016 | 16 ft | 123 kts | 222° |
| 2026-05-03 20:33 | 55.61568 | 12.65249 | 16 ft | 70 kts | 221° |
| 2026-05-03 20:33 | 55.61328 | 12.64853 | 18 ft | 34 kts | 231° |
| 2026-05-03 20:33 | 55.61227 | 12.64492 | 17 ft | 31 kts | 252° |
| 2026-05-03 20:34 | 55.61187 | 12.64270 | 18 ft | 17 kts | 257° |
| 2026-05-03 20:34 | 55.61234 | 12.64112 | 17 ft | 15 kts | 343° |
| 2026-05-03 20:34 | 55.61328 | 12.64173 | 19 ft | 15 kts | 31° |
| 2026-05-03 20:34 | 55.61411 | 12.64267 | 17 ft | 14 kts | 33° |
| 2026-05-03 20:35 | 55.61491 | 12.64358 | 17 ft | 13 kts | 33° |
| 2026-05-03 20:35 | 55.61567 | 12.64444 | 18 ft | 13 kts | 32° |
| 2026-05-03 20:35 | 55.61646 | 12.64533 | 17 ft | 15 kts | 33° |
| 2026-05-03 20:35 | 55.61747 | 12.64654 | 18 ft | 20 kts | 32° |
| 2026-05-03 20:36 | 55.61876 | 12.64799 | 17 ft | 25 kts | 33° |
| 2026-05-03 20:36 | 55.62031 | 12.64979 | 18 ft | 28 kts | 32° |
| 2026-05-03 20:36 | 55.62156 | 12.65120 | 18 ft | 14 kts | 32° |
| 2026-05-03 20:36 | 55.62231 | 12.65157 | 17 ft | 10 kts | 334° |
| 2026-05-03 20:37 | 55.62277 | 12.65057 | 17 ft | 11 kts | 303° |
| 2026-05-03 20:37 | 55.62321 | 12.64936 | 17 ft | 12 kts | 302° |
| 2026-05-03 20:37 | 55.62372 | 12.64803 | 18 ft | 14 kts | 305° |
| 2026-05-03 20:37 | 55.62428 | 12.64656 | 18 ft | 15 kts | 303° |
| 2026-05-03 20:38 | 55.62488 | 12.64492 | 17 ft | 17 kts | 303° |
| 2026-05-03 20:38 | 55.62555 | 12.64312 | 17 ft | 18 kts | 303° |
| 2026-05-03 20:38 | 55.62628 | 12.64119 | 18 ft | 20 kts | 303° |
| 2026-05-03 20:38 | 55.62692 | 12.63946 | 17 ft | 14 kts | 307° |
| 2026-05-03 20:39 | 55.62769 | 12.63954 | 19 ft | 10 kts | 30° |
| 2026-05-03 20:39 | 55.62825 | 12.63927 | 17 ft | 10 kts | 303° |
| 2026-05-03 20:39 | 55.62851 | 12.63858 | 17 ft | 3 kts | 10° |
| 2026-05-03 20:39 | 55.62861 | 12.63861 | 17 ft | 3 kts | 7° |
| 2026-05-03 20:40 | 55.62878 | 12.63866 | 17 ft | 2 kts | 11° |
| 2026-05-03 20:40 | 55.62882 | 12.63868 | 17 ft | 0 kts | 11° |